Observations for BENSON RAF, United Kingdom (EGUB)

EGUB 260450Z AUTO 06003KT 9000 // NCD 13/13 Q1018   
EGUB 260350Z AUTO 32002KT 9999 // NCD 13/13 Q1018   
EGUB 260250Z AUTO 21003KT 9999 // NCD 13/12 Q1018   
EGUB 260150Z AUTO 09001KT 9999 // NCD 14/13 Q1018   
EGUB 260050Z AUTO 08001KT 9999 // NCD 14/13 Q1019   
EGUB 252350Z AUTO 22001KT 9999 // NCD 14/12 Q1019   
EGUB 252250Z AUTO 17003KT 9999 // NCD 15/12 Q1019   
EGUB 252150Z AUTO 20001KT 9999 // NCD 17/12 Q1019   
EGUB 252050Z AUTO 16001KT 9999 // NCD 17/12 Q1018   
EGUB 251950Z AUTO 13001KT 9999 // NCD 19/12 Q1018   
EGUB 251850Z AUTO 19002KT 9999 // NCD 25/11 Q1018   
EGUB 251750Z AUTO 18010KT 9999 // NCD 29/10 Q1017   
EGUB 251650Z AUTO 17013KT 9999 // NCD 30/10 Q1017   
EGUB 251550Z AUTO 16010KT 9999 // NCD 32/12 Q1017   
EGUB 251450Z AUTO 17010KT 9999 // NCD 32/11 Q1017   
EGUB 251350Z AUTO 15011KT 9999 // NCD 32/11 Q1017   
EGUB 251250Z AUTO 15010KT 9999 // SCT100/// 32/12 Q1017 
EGUB 251150Z AUTO 16011KT 9999 // FEW100/// 30/12 Q1017 
EGUB 251050Z AUTO 16007KT 9999 // FEW150/// 29/14 Q1017 
EGUB 250950Z AUTO 14008KT 9999 // FEW150/// 28/14 Q1017 
EGUB 250850Z AUTO 15005KT 9999 // NCD 26/14 Q1017   
EGUB 250750Z AUTO 13005KT 9999 // FEW130/// 23/14 Q1017 
EGUB 250650Z AUTO 14001KT 9999 // FEW170/// 17/15 Q1017 
EGUB 250550Z AUTO 06002KT 9999 // SCT140/// 12/11 Q1017 
EGUB 250450Z AUTO 28001KT 9999 // NCD 12/10 Q1016